Time;durP1;ratioP1;P1;durP2;ratioP2;P2;SDS_P1;SDS_P2;PMS_P1;PMS_P2;Temp;Humidity;BMP_temperature;BMP_pressure;BME280_temperature;BME280_humidity;BME280_pressure;Samples;Min_cycle;Max_cycle;Signal;HPM_P1;HPM_P2
2024/01/16 00:00:20;;;;;;;2.55;1.52;;;;;;;;;;5047528;27;100303;-76
2024/01/16 00:02:46;;;;;;;5.78;2.25;;;;;;;;;;5046713;27;99749;-76
2024/01/16 00:05:13;;;;;;;2.10;1.90;;;;;;;;;;5060546;27;101082;-76
2024/01/16 00:07:40;;;;;;;10.50;1.67;;;;;;;;;;5068221;27;100470;-77
2024/01/16 00:10:09;;;;;;;10.68;1.98;;;;;;;;;;5064276;27;100081;-77
2024/01/16 00:12:35;;;;;;;6.05;2.08;;;;;;;;;;5066828;27;100210;-77
2024/01/16 00:15:02;;;;;;;9.90;1.98;;;;;;;;;;5067452;27;99918;-77
2024/01/16 00:17:28;;;;;;;13.55;2.05;;;;;;;;;;5051087;27;99801;-77
2024/01/16 00:19:55;;;;;;;2.83;1.67;;;;;;;;;;5050776;27;100243;-77
2024/01/16 00:22:21;;;;;;;8.02;2.15;;;;;;;;;;5047903;27;99892;-77
2024/01/16 00:24:48;;;;;;;3.83;2.20;;;;;;;;;;5046551;27;100211;-77
2024/01/16 00:27:14;;;;;;;13.13;2.53;;;;;;;;;;5051242;27;99928;-78
2024/01/16 00:29:41;;;;;;;1.25;1.08;;;;;;;;;;5046820;27;100119;-78
2024/01/16 00:32:07;;;;;;;7.47;2.22;;;;;;;;;;5046044;27;100458;-78
2024/01/16 00:34:34;;;;;;;7.60;1.83;;;;;;;;;;5046878;27;98953;-78
2024/01/16 00:37:01;;;;;;;8.25;1.50;;;;;;;;;;5047337;27;99840;-78
2024/01/16 00:39:30;;;;;;;4.97;1.92;;;;;;;;;;5048383;27;100187;-78
2024/01/16 00:41:56;;;;;;;14.57;3.05;;;;;;;;;;5068759;27;100016;-77
2024/01/16 00:44:23;;;;;;;2.13;1.27;;;;;;;;;;5066062;27;100063;-76
2024/01/16 00:46:50;;;;;;;10.02;2.42;;;;;;;;;;5067413;27;99966;-76
2024/01/16 00:49:16;;;;;;;6.47;1.65;;;;;;;;;;5067133;27;99269;-77
2024/01/16 00:51:47;;;;;;;2.00;1.33;;;;;;;;;;5066115;27;100174;-77
2024/01/16 00:54:13;;;;;;;14.85;2.08;;;;;;;;;;5066607;27;99886;-77
2024/01/16 00:56:41;;;;;;;13.35;2.45;;;;;;;;;;5067258;27;100845;-77
2024/01/16 00:59:08;;;;;;;7.53;1.63;;;;;;;;;;5051107;27;100398;-77
2024/01/16 01:01:37;;;;;;;8.10;2.15;;;;;;;;;;5046869;27;100205;-77
2024/01/16 01:04:03;;;;;;;6.20;1.85;;;;;;;;;;5049857;27;100101;-77
2024/01/16 01:06:30;;;;;;;6.72;1.83;;;;;;;;;;5045975;27;99960;-77
2024/01/16 01:08:56;;;;;;;11.32;2.10;;;;;;;;;;5046496;27;99895;-77
2024/01/16 01:11:23;;;;;;;10.77;1.95;;;;;;;;;;5047026;27;99421;-77
2024/01/16 01:13:49;;;;;;;4.85;1.52;;;;;;;;;;5057513;27;100060;-77
2024/01/16 01:16:16;;;;;;;6.60;1.70;;;;;;;;;;5065504;27;99991;-78
2024/01/16 01:18:42;;;;;;;14.57;2.10;;;;;;;;;;5062933;27;100919;-77
2024/01/16 01:21:09;;;;;;;4.82;1.98;;;;;;;;;;5060627;27;99320;-77
2024/01/16 01:23:36;;;;;;;3.03;1.67;;;;;;;;;;5066952;27;99960;-78
2024/01/16 01:26:03;;;;;;;17.60;2.90;;;;;;;;;;5069698;27;100761;-78
2024/01/16 01:28:30;;;;;;;3.88;1.77;;;;;;;;;;5065872;27;100328;-78
2024/01/16 01:30:57;;;;;;;6.40;1.77;;;;;;;;;;5063148;27;100433;-78
2024/01/16 01:33:23;;;;;;;12.60;1.80;;;;;;;;;;5066806;27;100273;-78
2024/01/16 01:35:50;;;;;;;6.93;2.05;;;;;;;;;;5066521;27;100275;-78
2024/01/16 01:38:18;;;;;;;2.55;1.55;;;;;;;;;;5065553;27;100432;-77
2024/01/16 01:40:45;;;;;;;4.78;1.10;;;;;;;;;;5066170;27;100255;-76
2024/01/16 01:43:21;;;;;;;3.75;1.83;;;;;;;;;;5065519;27;100101;-78
2024/01/16 01:46:03;;;;;;;5.70;1.98;;;;;;;;;;5067944;27;100269;-76
2024/01/16 01:48:31;;;;;;;3.25;1.80;;;;;;;;;;5063384;27;100121;-77
2024/01/16 01:50:59;;;;;;;7.47;2.28;;;;;;;;;;5066062;27;100226;-78
2024/01/16 01:53:25;;;;;;;9.55;2.63;;;;;;;;;;5066498;27;100105;-78
2024/01/16 01:55:52;;;;;;;4.50;1.85;;;;;;;;;;5065708;27;99785;-78
2024/01/16 01:58:19;;;;;;;12.32;1.70;;;;;;;;;;5066135;27;100164;-78
2024/01/16 02:00:46;;;;;;;4.45;1.52;;;;;;;;;;5066958;27;100127;-78
2024/01/16 02:03:13;;;;;;;1.92;0.95;;;;;;;;;;5051457;27;99145;-78
2024/01/16 02:05:39;;;;;;;7.47;1.98;;;;;;;;;;5045743;27;100542;-78
2024/01/16 02:08:06;;;;;;;2.65;1.38;;;;;;;;;;5048695;27;100104;-76
2024/01/16 02:10:32;;;;;;;5.65;1.25;;;;;;;;;;5045120;27;100208;-78
2024/01/16 02:12:59;;;;;;;1.67;0.90;;;;;;;;;;5045675;27;99932;-76
2024/01/16 02:15:26;;;;;;;3.35;1.00;;;;;;;;;;5045963;27;100103;-77
2024/01/16 02:17:52;;;;;;;5.15;1.15;;;;;;;;;;5048026;27;100425;-77
2024/01/16 02:20:19;;;;;;;3.20;1.08;;;;;;;;;;5049393;27;100323;-76
2024/01/16 02:22:47;;;;;;;4.18;1.10;;;;;;;;;;5045753;27;100009;-77
2024/01/16 02:25:14;;;;;;;1.20;1.13;;;;;;;;;;5047950;27;99426;-77
2024/01/16 02:27:40;;;;;;;4.15;1.35;;;;;;;;;;5065971;27;99888;-77
2024/01/16 02:30:07;;;;;;;5.32;1.40;;;;;;;;;;5068393;27;99974;-77
2024/01/16 02:32:33;;;;;;;3.08;1.55;;;;;;;;;;5065335;27;100132;-77
2024/01/16 02:35:00;;;;;;;1.80;1.40;;;;;;;;;;5061443;27;100535;-77
2024/01/16 02:37:26;;;;;;;5.65;1.35;;;;;;;;;;5065106;27;100391;-77
2024/01/16 02:39:53;;;;;;;2.28;1.20;;;;;;;;;;5065859;27;100083;-77
2024/01/16 02:42:19;;;;;;;6.45;1.13;;;;;;;;;;5065457;27;99901;-77
2024/01/16 02:44:45;;;;;;;5.70;1.92;;;;;;;;;;5065162;27;100177;-77
2024/01/16 02:47:12;;;;;;;1.20;1.10;;;;;;;;;;5065399;27;100186;-77
2024/01/16 02:49:39;;;;;;;1.90;1.30;;;;;;;;;;5064595;27;99968;-77
2024/01/16 02:52:06;;;;;;;3.25;1.50;;;;;;;;;;5068015;27;100304;-77
2024/01/16 02:54:33;;;;;;;2.05;1.80;;;;;;;;;;5065524;27;100046;-77
2024/01/16 02:56:59;;;;;;;2.78;1.60;;;;;;;;;;5048129;27;100876;-77
2024/01/16 02:59:28;;;;;;;5.47;1.33;;;;;;;;;;5064998;27;100009;-77
2024/01/16 03:01:54;;;;;;;2.63;1.50;;;;;;;;;;5065311;27;100543;-77
2024/01/16 03:04:21;;;;;;;3.05;1.20;;;;;;;;;;5068901;27;100970;-77
2024/01/16 03:06:47;;;;;;;4.93;2.22;;;;;;;;;;5067040;27;99923;-76
2024/01/16 03:09:14;;;;;;;2.65;1.15;;;;;;;;;;5068667;27;99969;-77
2024/01/16 03:11:40;;;;;;;5.05;1.63;;;;;;;;;;5068982;27;100577;-77
2024/01/16 03:14:07;;;;;;;0.90;0.90;;;;;;;;;;5071833;27;100001;-77
2024/01/16 03:16:33;;;;;;;3.10;1.42;;;;;;;;;;5067906;27;100325;-77
2024/01/16 03:19:00;;;;;;;2.17;0.95;;;;;;;;;;5061976;27;99753;-76
2024/01/16 03:21:27;;;;;;;6.25;1.20;;;;;;;;;;5051709;27;99971;-75
2024/01/16 03:23:54;;;;;;;2.38;1.20;;;;;;;;;;5052593;27;101165;-77
2024/01/16 03:26:21;;;;;;;4.13;1.15;;;;;;;;;;5054575;27;100725;-76
2024/01/16 03:28:47;;;;;;;2.42;1.10;;;;;;;;;;5053647;27;100024;-76
2024/01/16 03:31:14;;;;;;;5.72;0.80;;;;;;;;;;5050316;27;101861;-76
2024/01/16 03:33:42;;;;;;;2.15;1.02;;;;;;;;;;5052084;27;100845;-76
2024/01/16 03:36:09;;;;;;;5.20;0.88;;;;;;;;;;5059662;27;100155;-76
2024/01/16 03:38:39;;;;;;;3.88;1.00;;;;;;;;;;5060928;27;99917;-76
2024/01/16 03:41:06;;;;;;;7.25;1.15;;;;;;;;;;5052517;27;99529;-76
2024/01/16 03:43:34;;;;;;;6.53;1.20;;;;;;;;;;5051585;27;100123;-76
2024/01/16 03:46:01;;;;;;;2.80;1.02;;;;;;;;;;5049972;27;101161;-76
2024/01/16 03:48:27;;;;;;;0.82;0.80;;;;;;;;;;5056742;27;100526;-75
2024/01/16 03:50:54;;;;;;;1.20;1.10;;;;;;;;;;5051114;27;100169;-76
2024/01/16 03:53:21;;;;;;;1.95;0.88;;;;;;;;;;5049040;27;101481;-76
2024/01/16 03:55:48;;;;;;;1.00;0.90;;;;;;;;;;5054617;27;101230;-76
2024/01/16 03:58:15;;;;;;;9.57;1.67;;;;;;;;;;5048214;27;101055;-76
2024/01/16 04:00:41;;;;;;;2.60;0.80;;;;;;;;;;5049476;27;100183;-75
2024/01/16 04:03:08;;;;;;;1.08;0.90;;;;;;;;;;5049243;27;99585;-76
2024/01/16 04:05:35;;;;;;;1.02;1.02;;;;;;;;;;5051007;27;100041;-75
2024/01/16 04:08:02;;;;;;;0.82;0.82;;;;;;;;;;5051603;27;100158;-75
2024/01/16 04:10:28;;;;;;;1.67;1.00;;;;;;;;;;5049766;27;100893;-75
2024/01/16 04:12:54;;;;;;;1.08;1.08;;;;;;;;;;5051633;27;100516;-75
2024/01/16 04:15:22;;;;;;;15.43;1.25;;;;;;;;;;5049731;27;100025;-75
2024/01/16 04:17:49;;;;;;;2.90;1.50;;;;;;;;;;5051062;27;101431;-75
2024/01/16 04:20:15;;;;;;;10.73;1.30;;;;;;;;;;5053766;27;100055;-76
2024/01/16 04:22:42;;;;;;;1.20;1.10;;;;;;;;;;5049679;27;100507;-74
2024/01/16 04:25:09;;;;;;;1.00;1.00;;;;;;;;;;5050852;27;99902;-74
2024/01/16 04:27:35;;;;;;;1.60;1.42;;;;;;;;;;5050335;27;99940;-74
2024/01/16 04:30:02;;;;;;;2.67;1.20;;;;;;;;;;5055202;27;100227;-75
2024/01/16 04:32:29;;;;;;;3.85;1.15;;;;;;;;;;5050550;27;100128;-74
2024/01/16 04:34:56;;;;;;;2.00;1.27;;;;;;;;;;5049731;27;100523;-74
2024/01/16 04:37:22;;;;;;;6.65;0.98;;;;;;;;;;5051557;27;100385;-75
2024/01/16 04:39:49;;;;;;;1.88;1.17;;;;;;;;;;5056059;27;99997;-75
2024/01/16 04:42:17;;;;;;;9.23;1.75;;;;;;;;;;5054269;27;100166;-74
2024/01/16 04:44:44;;;;;;;3.20;1.38;;;;;;;;;;5057078;27;99857;-75
2024/01/16 04:47:11;;;;;;;1.17;1.10;;;;;;;;;;5061545;27;100201;-75
2024/01/16 04:49:38;;;;;;;1.77;1.23;;;;;;;;;;5059126;27;100411;-75
2024/01/16 04:52:04;;;;;;;6.95;1.17;;;;;;;;;;5053720;27;99998;-77
2024/01/16 04:54:31;;;;;;;1.05;1.05;;;;;;;;;;5054615;27;100608;-78
2024/01/16 04:56:57;;;;;;;5.20;1.83;;;;;;;;;;5050722;27;100211;-78
2024/01/16 04:59:23;;;;;;;1.23;1.23;;;;;;;;;;5055784;27;100043;-77
2024/01/16 05:01:50;;;;;;;1.90;1.73;;;;;;;;;;5055328;27;100545;-78
2024/01/16 05:04:17;;;;;;;1.30;1.20;;;;;;;;;;5049961;27;100231;-77
2024/01/16 05:06:43;;;;;;;1.23;1.13;;;;;;;;;;5047424;27;100502;-78
2024/01/16 05:09:10;;;;;;;2.90;1.23;;;;;;;;;;5047880;27;100580;-78
2024/01/16 05:11:36;;;;;;;6.15;2.00;;;;;;;;;;5049321;27;100079;-78
2024/01/16 05:14:03;;;;;;;5.43;2.50;;;;;;;;;;5047939;27;100989;-78
2024/01/16 05:16:29;;;;;;;1.10;1.10;;;;;;;;;;5049276;27;99383;-78
2024/01/16 05:18:56;;;;;;;4.72;1.50;;;;;;;;;;5047953;27;100414;-78
2024/01/16 05:21:22;;;;;;;6.88;1.90;;;;;;;;;;5049159;27;100302;-78
2024/01/16 05:23:49;;;;;;;7.70;1.90;;;;;;;;;;5052836;27;101336;-78
2024/01/16 05:26:16;;;;;;;3.35;1.40;;;;;;;;;;5048543;27;100552;-78
2024/01/16 05:28:43;;;;;;;6.30;1.70;;;;;;;;;;5053209;27;100841;-77
2024/01/16 05:31:09;;;;;;;3.45;1.58;;;;;;;;;;5053052;27;99897;-78
2024/01/16 05:33:35;;;;;;;4.15;1.75;;;;;;;;;;5051781;27;100500;-78
2024/01/16 05:36:02;;;;;;;2.00;1.75;;;;;;;;;;5049159;27;100010;-78
2024/01/16 05:38:29;;;;;;;1.95;1.85;;;;;;;;;;5051445;27;100144;-78
2024/01/16 05:40:55;;;;;;;2.15;1.52;;;;;;;;;;5050759;27;99866;-77
2024/01/16 05:43:22;;;;;;;2.80;2.58;;;;;;;;;;5051272;27;100205;-78
2024/01/16 05:45:50;;;;;;;2.05;1.80;;;;;;;;;;5053364;27;101085;-78
2024/01/16 05:48:16;;;;;;;6.60;1.73;;;;;;;;;;5047775;27;101468;-77
2024/01/16 05:50:43;;;;;;;5.25;1.55;;;;;;;;;;5047236;27;100087;-78
2024/01/16 05:53:09;;;;;;;2.20;2.00;;;;;;;;;;5051374;27;101337;-77
2024/01/16 05:55:36;;;;;;;2.67;1.30;;;;;;;;;;5048582;27;100313;-78
2024/01/16 05:58:03;;;;;;;2.10;2.00;;;;;;;;;;5049463;27;99947;-77
2024/01/16 06:00:29;;;;;;;3.47;1.90;;;;;;;;;;5049968;27;100848;-78
2024/01/16 06:02:56;;;;;;;6.55;2.10;;;;;;;;;;5052806;27;100635;-78
2024/01/16 06:05:22;;;;;;;2.97;2.03;;;;;;;;;;5053259;27;100074;-77
2024/01/16 06:07:49;;;;;;;2.17;2.08;;;;;;;;;;5050038;27;100671;-78
2024/01/16 06:10:15;;;;;;;2.10;1.63;;;;;;;;;;5046656;27;99977;-77
2024/01/16 06:12:42;;;;;;;2.78;1.85;;;;;;;;;;5050600;27;101434;-78
2024/01/16 06:15:11;;;;;;;6.28;2.47;;;;;;;;;;5050164;27;100339;-77
2024/01/16 06:17:37;;;;;;;2.08;1.98;;;;;;;;;;5050097;27;99614;-76
2024/01/16 06:20:06;;;;;;;6.15;2.35;;;;;;;;;;5049633;27;100062;-78
2024/01/16 06:22:32;;;;;;;11.65;2.30;;;;;;;;;;5047149;27;100280;-79
2024/01/16 06:24:59;;;;;;;4.97;1.98;;;;;;;;;;5050027;27;99836;-78
2024/01/16 06:27:25;;;;;;;7.00;2.72;;;;;;;;;;5051925;27;100191;-78
2024/01/16 06:29:52;;;;;;;3.50;3.20;;;;;;;;;;5049200;27;99998;-79
2024/01/16 06:32:18;;;;;;;5.55;2.05;;;;;;;;;;5051447;27;100180;-78
2024/01/16 06:34:45;;;;;;;4.60;2.15;;;;;;;;;;5049462;27;100355;-78
2024/01/16 06:37:11;;;;;;;3.53;1.80;;;;;;;;;;5048792;27;100520;-78
2024/01/16 06:39:39;;;;;;;2.53;1.33;;;;;;;;;;5052076;27;100860;-78
2024/01/16 06:42:05;;;;;;;1.58;1.45;;;;;;;;;;5050044;27;100165;-78
2024/01/16 06:44:36;;;;;;;10.85;2.17;;;;;;;;;;5052845;27;100310;-78
2024/01/16 06:47:03;;;;;;;3.92;1.98;;;;;;;;;;5054305;27;100202;-79
2024/01/16 06:49:29;;;;;;;3.40;1.67;;;;;;;;;;5058810;27;100439;-79
2024/01/16 06:51:57;;;;;;;1.48;1.42;;;;;;;;;;5051913;27;100348;-79
2024/01/16 06:54:23;;;;;;;3.35;1.58;;;;;;;;;;5052166;27;99493;-78
2024/01/16 06:56:50;;;;;;;4.88;1.88;;;;;;;;;;5051272;27;99899;-78
2024/01/16 06:59:19;;;;;;;3.33;1.92;;;;;;;;;;5058607;27;100073;-78
2024/01/16 07:01:45;;;;;;;8.35;2.25;;;;;;;;;;5058653;27;101178;-79
2024/01/16 07:04:14;;;;;;;6.15;1.85;;;;;;;;;;5056024;27;100093;-77
2024/01/16 07:06:41;;;;;;;5.32;2.45;;;;;;;;;;5057966;27;99953;-78
2024/01/16 07:09:10;;;;;;;3.70;2.70;;;;;;;;;;5067323;27;100183;-78
2024/01/16 07:11:37;;;;;;;2.10;1.90;;;;;;;;;;5070788;27;100413;-78
2024/01/16 07:14:06;;;;;;;7.45;3.10;;;;;;;;;;5068696;27;100434;-79
2024/01/16 07:16:33;;;;;;;7.65;1.80;;;;;;;;;;5067863;27;99129;-79
2024/01/16 07:18:59;;;;;;;4.32;1.73;;;;;;;;;;5066069;27;100912;-78
2024/01/16 07:21:26;;;;;;;8.38;2.20;;;;;;;;;;5067544;27;100137;-82
2024/01/16 07:23:52;;;;;;;6.70;2.67;;;;;;;;;;5064055;27;100050;-83
2024/01/16 07:26:19;;;;;;;3.25;2.55;;;;;;;;;;5056819;27;99911;-81
2024/01/16 07:28:47;;;;;;;6.47;2.60;;;;;;;;;;5068817;27;100165;-83
2024/01/16 07:31:16;;;;;;;14.35;3.58;;;;;;;;;;5067870;27;99051;-82
2024/01/16 07:33:42;;;;;;;15.93;3.90;;;;;;;;;;5071515;27;100027;-81
2024/01/16 07:36:12;;;;;;;4.47;3.90;;;;;;;;;;5068465;27;99813;-81
2024/01/16 07:38:38;;;;;;;8.10;3.83;;;;;;;;;;5069090;27;99920;-80
2024/01/16 07:41:05;;;;;;;7.80;4.20;;;;;;;;;;5068640;27;100165;-81
2024/01/16 07:43:32;;;;;;;12.55;4.53;;;;;;;;;;5048101;27;99001;-80
2024/01/16 07:45:59;;;;;;;9.63;5.03;;;;;;;;;;5047843;27;98546;-81
2024/01/16 07:48:25;;;;;;;5.75;4.35;;;;;;;;;;5047159;27;100057;-80
2024/01/16 07:50:52;;;;;;;9.75;5.20;;;;;;;;;;5047681;27;100395;-80
2024/01/16 07:53:18;;;;;;;9.48;5.40;;;;;;;;;;5051177;27;100904;-80
2024/01/16 07:55:45;;;;;;;4.78;4.30;;;;;;;;;;5048075;27;99857;-80
2024/01/16 07:58:11;;;;;;;12.48;5.40;;;;;;;;;;5047571;27;99021;-78
2024/01/16 08:00:38;;;;;;;14.52;4.63;;;;;;;;;;5053014;27;100322;-80
2024/01/16 08:03:07;;;;;;;6.40;5.90;;;;;;;;;;5056231;27;99148;-81
2024/01/16 08:05:33;;;;;;;11.60;6.32;;;;;;;;;;5064645;27;99776;-81
2024/01/16 08:08:00;;;;;;;6.32;5.57;;;;;;;;;;5063642;27;99540;-79
2024/01/16 08:10:26;;;;;;;10.75;5.78;;;;;;;;;;5051978;27;100045;-80
2024/01/16 08:12:53;;;;;;;11.52;6.25;;;;;;;;;;5047841;27;100169;-81
2024/01/16 08:15:19;;;;;;;6.35;5.85;;;;;;;;;;5056049;27;100978;-82
2024/01/16 08:17:45;;;;;;;10.77;6.28;;;;;;;;;;5066317;27;100953;-80
2024/01/16 08:20:12;;;;;;;12.38;6.03;;;;;;;;;;5047532;27;100193;-79
2024/01/16 08:22:39;;;;;;;14.20;6.65;;;;;;;;;;5057792;27;100175;-80
2024/01/16 08:25:06;;;;;;;13.88;6.25;;;;;;;;;;5051791;27;99116;-78
2024/01/16 08:27:32;;;;;;;20.55;6.22;;;;;;;;;;5057696;27;100708;-80
2024/01/16 08:29:59;;;;;;;6.40;5.72;;;;;;;;;;5049248;27;100138;-81
2024/01/16 08:32:26;;;;;;;12.63;6.03;;;;;;;;;;5054168;27;100273;-80
2024/01/16 08:34:53;;;;;;;7.40;5.82;;;;;;;;;;5047117;27;100369;-80
2024/01/16 08:37:19;;;;;;;7.90;6.13;;;;;;;;;;5061427;27;99910;-80
2024/01/16 08:39:46;;;;;;;8.00;6.20;;;;;;;;;;5049791;27;101207;-79
2024/01/16 08:42:12;;;;;;;5.88;5.28;;;;;;;;;;5056451;27;99866;-79
2024/01/16 08:44:39;;;;;;;10.40;5.23;;;;;;;;;;5046336;27;99860;-79
2024/01/16 08:47:06;;;;;;;9.32;5.20;;;;;;;;;;5057226;27;100420;-80
2024/01/16 08:49:33;;;;;;;24.10;5.72;;;;;;;;;;5059217;27;100143;-80
2024/01/16 08:51:59;;;;;;;4.40;3.95;;;;;;;;;;5053754;27;100080;-80
2024/01/16 08:54:26;;;;;;;14.45;4.53;;;;;;;;;;5056779;27;99438;-79
2024/01/16 08:56:52;;;;;;;9.02;4.47;;;;;;;;;;5046619;27;100014;-79
2024/01/16 08:59:19;;;;;;;4.85;4.45;;;;;;;;;;5058147;27;99379;-80
2024/01/16 09:01:45;;;;;;;4.35;3.90;;;;;;;;;;5053740;27;99906;-81
2024/01/16 09:04:12;;;;;;;18.23;4.00;;;;;;;;;;5059145;27;99806;-80
2024/01/16 09:06:38;;;;;;;8.20;4.05;;;;;;;;;;5045750;27;99275;-79
2024/01/16 09:09:05;;;;;;;8.63;3.78;;;;;;;;;;5056296;27;100018;-80
2024/01/16 09:11:32;;;;;;;4.35;3.33;;;;;;;;;;5057381;27;100220;-81
2024/01/16 09:13:58;;;;;;;4.82;2.63;;;;;;;;;;5051357;27;100678;-80
2024/01/16 09:16:29;;;;;;;10.80;4.15;;;;;;;;;;5048690;27;100168;-79
2024/01/16 09:18:55;;;;;;;10.85;3.95;;;;;;;;;;5044763;27;99189;-81
2024/01/16 09:21:22;;;;;;;7.75;3.03;;;;;;;;;;5053219;27;99689;-79
2024/01/16 09:23:48;;;;;;;5.25;2.90;;;;;;;;;;5058822;27;99221;-80
2024/01/16 09:26:15;;;;;;;12.73;3.25;;;;;;;;;;5058613;27;100131;-80
2024/01/16 09:28:41;;;;;;;13.48;3.33;;;;;;;;;;5060373;27;99995;-80
2024/01/16 09:31:07;;;;;;;14.90;2.50;;;;;;;;;;5049883;27;99719;-80
2024/01/16 09:33:34;;;;;;;9.07;3.45;;;;;;;;;;5046244;27;100544;-80
2024/01/16 09:36:01;;;;;;;8.52;3.13;;;;;;;;;;5048203;27;100574;-80
2024/01/16 09:38:28;;;;;;;12.45;3.33;;;;;;;;;;5051826;27;100023;-79
2024/01/16 09:40:58;;;;;;;12.77;3.45;;;;;;;;;;5046929;27;100129;-79
2024/01/16 09:43:28;;;;;;;7.25;3.15;;;;;;;;;;5053670;27;101125;-79
2024/01/16 09:45:55;;;;;;;4.53;3.22;;;;;;;;;;5050202;27;99363;-80
2024/01/16 09:48:24;;;;;;;5.57;2.97;;;;;;;;;;5048435;27;100706;-79
2024/01/16 09:50:51;;;;;;;6.00;3.08;;;;;;;;;;5047859;27;100079;-80
2024/01/16 09:53:17;;;;;;;8.02;2.75;;;;;;;;;;5046501;27;100930;-80
2024/01/16 09:55:44;;;;;;;6.80;2.33;;;;;;;;;;5051717;27;100232;-81
2024/01/16 09:58:14;;;;;;;10.43;2.58;;;;;;;;;;5049839;27;100043;-80
2024/01/16 10:00:43;;;;;;;11.65;2.97;;;;;;;;;;5045067;27;100148;-80
2024/01/16 10:03:12;;;;;;;10.13;2.72;;;;;;;;;;5049040;27;100497;-80
2024/01/16 10:05:40;;;;;;;3.58;2.10;;;;;;;;;;5053059;27;100135;-81
2024/01/16 10:08:07;;;;;;;4.63;2.45;;;;;;;;;;5048828;27;100142;-81
2024/01/16 10:10:34;;;;;;;5.05;3.17;;;;;;;;;;5050426;27;99871;-81
2024/01/16 10:13:14;;;;;;;3.00;2.80;;;;;;;;;;5065865;27;100439;-81
2024/01/16 10:15:41;;;;;;;7.38;2.88;;;;;;;;;;5060481;27;99956;-80
2024/01/16 10:18:21;;;;;;;2.83;2.65;;;;;;;;;;5054493;27;101116;-79
2024/01/16 10:20:48;;;;;;;5.97;2.38;;;;;;;;;;5054587;27;99244;-74
2024/01/16 10:23:21;;;;;;;11.23;2.63;;;;;;;;;;5061624;27;99879;-79
2024/01/16 10:26:04;;;;;;;10.55;2.78;;;;;;;;;;5066848;27;100024;-80
2024/01/16 10:28:31;;;;;;;11.65;3.05;;;;;;;;;;5048599;27;99963;-80
2024/01/16 10:31:01;;;;;;;10.95;2.65;;;;;;;;;;5048383;27;100206;-80
2024/01/16 10:33:28;;;;;;;6.97;2.53;;;;;;;;;;5049088;27;100520;-80
2024/01/16 10:36:08;;;;;;;5.38;2.45;;;;;;;;;;5048414;27;100182;-79
2024/01/16 10:38:38;;;;;;;4.18;2.05;;;;;;;;;;5061268;27;101196;-79
2024/01/16 10:41:10;;;;;;;4.95;2.75;;;;;;;;;;5052264;27;100528;-78
2024/01/16 10:43:37;;;;;;;;;;;;;;;;;;5051287;27;100337;-78
2024/01/16 10:46:15;;;;;;;2.45;2.00;;;;;;;;;;5050488;27;116565;-79
2024/01/16 10:48:58;;;;;;;4.18;2.22;;;;;;;;;;5060995;27;100575;-79
2024/01/16 10:51:25;;;;;;;5.70;2.55;;;;;;;;;;5059331;27;100088;-79
2024/01/16 10:53:57;;;;;;;5.07;2.45;;;;;;;;;;5060587;27;99417;-79
2024/01/16 10:56:24;;;;;;;12.13;2.92;;;;;;;;;;5069109;27;100313;-80
2024/01/16 10:59:06;;;;;;;4.95;2.17;;;;;;;;;;5062774;27;100107;-79
2024/01/16 11:01:32;;;;;;;4.70;2.95;;;;;;;;;;5058394;27;99699;-79
2024/01/16 11:04:00;;;;;;;2.15;2.05;;;;;;;;;;5048494;27;100071;-78
2024/01/16 11:06:27;;;;;;;2.58;2.38;;;;;;;;;;5049559;27;99945;-79
2024/01/16 11:08:54;;;;;;;2.47;2.20;;;;;;;;;;5049020;27;101219;-79
2024/01/16 11:11:22;;;;;;;5.93;2.97;;;;;;;;;;5054293;27;101107;-80
2024/01/16 11:13:49;;;;;;;2.63;2.40;;;;;;;;;;5056255;27;100106;-79
2024/01/16 11:16:16;;;;;;;9.98;2.40;;;;;;;;;;5052243;27;100191;-79
2024/01/16 11:18:42;;;;;;;2.47;2.30;;;;;;;;;;5047163;27;101557;-80
2024/01/16 11:21:10;;;;;;;5.13;2.75;;;;;;;;;;5062629;27;100265;-78
2024/01/16 11:23:43;;;;;;;4.63;2.63;;;;;;;;;;5050313;27;100100;-77
2024/01/16 11:26:26;;;;;;;4.30;2.45;;;;;;;;;;5053758;27;100095;-78
2024/01/16 11:28:54;;;;;;;6.43;2.50;;;;;;;;;;5053114;27;100397;-79
2024/01/16 11:31:34;;;;;;;4.68;2.92;;;;;;;;;;5060033;27;99953;-79
2024/01/16 11:34:01;;;;;;;5.32;2.38;;;;;;;;;;5057900;27;100123;-79
2024/01/16 11:36:48;;;;;;;6.90;2.88;;;;;;;;;;5053182;27;101280;-80
2024/01/16 11:39:18;;;;;;;4.20;2.15;;;;;;;;;;5048697;27;99038;-80
2024/01/16 11:41:48;;;;;;;5.60;2.28;;;;;;;;;;5050966;27;100222;-80
2024/01/16 11:44:33;;;;;;;3.55;2.50;;;;;;;;;;5053851;27;100102;-79
2024/01/16 11:47:00;;;;;;;8.45;2.80;;;;;;;;;;5048145;27;99871;-80
2024/01/16 11:49:26;;;;;;;7.10;2.58;;;;;;;;;;5048161;27;100192;-80
2024/01/16 11:51:53;;;;;;;6.63;2.45;;;;;;;;;;5048710;27;99999;-80
2024/01/16 11:54:19;;;;;;;7.90;2.40;;;;;;;;;;5057994;27;99139;-80
2024/01/16 11:56:55;;;;;;;9.30;2.33;;;;;;;;;;5071247;27;100484;-77
2024/01/16 11:59:40;;;;;;;7.20;2.30;;;;;;;;;;5059618;27;99916;-78
2024/01/16 12:02:10;;;;;;;4.95;2.13;;;;;;;;;;5054753;27;100460;-79
2024/01/16 12:04:36;;;;;;;6.63;2.50;;;;;;;;;;5067125;27;100225;-78
2024/01/16 12:07:03;;;;;;;2.88;1.80;;;;;;;;;;5054221;27;99260;-78
2024/01/16 12:09:30;;;;;;;2.10;1.95;;;;;;;;;;5067370;27;100184;-79
2024/01/16 12:12:00;;;;;;;2.97;1.90;;;;;;;;;;5067604;27;100159;-79
2024/01/16 12:14:28;;;;;;;1.70;1.60;;;;;;;;;;5067411;27;99902;-80
2024/01/16 12:17:10;;;;;;;4.32;2.08;;;;;;;;;;5071148;27;99445;-80
2024/01/16 12:19:40;;;;;;;;;;;;;;;;;;5055296;27;99201;-79
2024/01/16 12:22:08;;;;;;;2.97;1.98;;;;;;;;;;5066180;27;118958;-79
2024/01/16 12:24:34;;;;;;;1.80;1.65;;;;;;;;;;5058892;27;100311;-79
2024/01/16 12:27:01;;;;;;;3.10;1.52;;;;;;;;;;5052353;27;99830;-78
2024/01/16 12:29:29;;;;;;;4.78;2.38;;;;;;;;;;5062843;27;100175;-79
2024/01/16 12:32:04;;;;;;;3.03;2.10;;;;;;;;;;5049750;27;99046;-78
2024/01/16 12:34:31;;;;;;;7.60;1.88;;;;;;;;;;5062858;27;99905;-78
2024/01/16 12:37:05;;;;;;;1.77;1.67;;;;;;;;;;5055269;27;100563;-78
2024/01/16 12:39:32;;;;;;;8.85;2.75;;;;;;;;;;5065181;27;100036;-78
2024/01/16 12:41:59;;;;;;;6.22;1.88;;;;;;;;;;5062777;27;99369;-78
2024/01/16 12:44:28;;;;;;;2.58;2.00;;;;;;;;;;5051443;27;100087;-78
2024/01/16 12:46:55;;;;;;;3.00;2.03;;;;;;;;;;5047207;27;100278;-77
2024/01/16 12:49:23;;;;;;;6.50;1.58;;;;;;;;;;5045800;27;100957;-78
2024/01/16 12:51:50;;;;;;;7.95;2.13;;;;;;;;;;5047731;27;99982;-78
2024/01/16 12:54:18;;;;;;;7.63;2.33;;;;;;;;;;5063305;27;100328;-78
2024/01/16 12:56:45;;;;;;;2.72;2.53;;;;;;;;;;5046291;27;100509;-78
2024/01/16 12:59:12;;;;;;;2.13;2.03;;;;;;;;;;5048897;27;101172;-77
2024/01/16 13:01:43;;;;;;;3.72;3.15;;;;;;;;;;5050801;27;99119;-78
2024/01/16 13:04:10;;;;;;;4.05;2.08;;;;;;;;;;5050665;27;99906;-77
2024/01/16 13:06:37;;;;;;;3.03;2.40;;;;;;;;;;5047652;27;100507;-76
2024/01/16 13:09:10;;;;;;;4.45;2.28;;;;;;;;;;5050085;27;100801;-78
2024/01/16 13:11:51;;;;;;;8.32;3.83;;;;;;;;;;5051538;27;99295;-79
2024/01/16 13:14:20;;;;;;;2.83;2.10;;;;;;;;;;5049941;27;100467;-79
2024/01/16 13:16:48;;;;;;;2.60;2.28;;;;;;;;;;5066645;27;100195;-79
2024/01/16 13:19:18;;;;;;;9.48;2.45;;;;;;;;;;5046800;27;100227;-80
2024/01/16 13:21:45;;;;;;;3.85;2.70;;;;;;;;;;5048168;27;99909;-80
2024/01/16 13:24:17;;;;;;;4.15;2.30;;;;;;;;;;5054989;27;100372;-80
2024/01/16 13:26:44;;;;;;;2.10;1.80;;;;;;;;;;5045939;27;99882;-77
2024/01/16 13:29:10;;;;;;;6.82;3.00;;;;;;;;;;5049352;27;99626;-81
2024/01/16 13:31:37;;;;;;;8.65;2.97;;;;;;;;;;5050781;27;99677;-81
2024/01/16 13:34:04;;;;;;;8.20;2.50;;;;;;;;;;5046504;27;99240;-81
2024/01/16 13:36:30;;;;;;;4.47;2.03;;;;;;;;;;5046270;27;100394;-81
2024/01/16 13:39:00;;;;;;;3.20;2.30;;;;;;;;;;5045046;27;100201;-81
2024/01/16 13:41:27;;;;;;;2.92;2.15;;;;;;;;;;5045359;27;100630;-80
2024/01/16 13:43:54;;;;;;;4.10;2.83;;;;;;;;;;5059724;27;100157;-81
2024/01/16 13:46:22;;;;;;;3.25;2.45;;;;;;;;;;5067776;27;100010;-81
2024/01/16 13:49:08;;;;;;;6.50;3.05;;;;;;;;;;5052961;27;100286;-80
2024/01/16 13:51:35;;;;;;;9.02;3.00;;;;;;;;;;5065192;27;100139;-80
2024/01/16 13:54:01;;;;;;;6.15;3.08;;;;;;;;;;5059598;27;99792;-81
2024/01/16 13:56:28;;;;;;;8.60;2.78;;;;;;;;;;5046641;27;99433;-80
2024/01/16 13:59:14;;;;;;;5.13;2.50;;;;;;;;;;5045757;27;99984;-80
2024/01/16 14:01:41;;;;;;;9.18;2.58;;;;;;;;;;5045750;27;100315;-80
2024/01/16 14:04:07;;;;;;;7.55;2.60;;;;;;;;;;5044797;27;100235;-80
2024/01/16 14:06:34;;;;;;;2.60;2.17;;;;;;;;;;5053356;27;99030;-80
2024/01/16 14:09:20;;;;;;;2.10;1.58;;;;;;;;;;5069389;27;98980;-81
2024/01/16 14:11:47;;;;;;;6.03;2.03;;;;;;;;;;5066311;27;100554;-81
2024/01/16 14:14:13;;;;;;;4.05;1.92;;;;;;;;;;5065066;27;99769;-81
2024/01/16 14:16:40;;;;;;;1.88;1.77;;;;;;;;;;5066238;27;100362;-80
2024/01/16 14:19:20;;;;;;;1.75;1.65;;;;;;;;;;5066057;27;99832;-80
2024/01/16 14:21:47;;;;;;;9.98;1.95;;;;;;;;;;5066221;27;99859;-80
2024/01/16 14:24:14;;;;;;;9.40;1.90;;;;;;;;;;5065848;27;100194;-79
2024/01/16 14:26:44;;;;;;;8.77;2.10;;;;;;;;;;5065483;27;99142;-79
2024/01/16 14:29:11;;;;;;;3.38;2.30;;;;;;;;;;5068095;27;100953;-79
2024/01/16 14:31:37;;;;;;;1.98;1.88;;;;;;;;;;5066015;27;100046;-79
2024/01/16 14:34:04;;;;;;;11.45;2.80;;;;;;;;;;5065854;27;100085;-80
2024/01/16 14:36:30;;;;;;;2.70;2.17;;;;;;;;;;5065471;27;100211;-79